Time;durP1;ratioP1;P1;durP2;ratioP2;P2;SDS_P1;SDS_P2;PMS_P1;PMS_P2;Temp;Humidity;BMP_temperature;BMP_pressure;BME280_temperature;BME280_humidity;BME280_pressure;Samples;Min_cycle;Max_cycle;Signal;HPM_P1;HPM_P2
2021/12/05 00:17:37;;;;;;;11.90;2.73;;;3.40;99.90;;;;;;5111169;28;20191;-71
2021/12/05 00:20:31;;;;;;;13.80;3.30;;;3.40;99.90;;;;;;5109214;28;20210;-72
2021/12/05 00:23:01;;;;;;;11.60;2.90;;;3.30;99.90;;;;;;5117683;28;20248;-73
2021/12/05 00:25:32;;;;;;;11.97;3.63;;;3.40;99.90;;;;;;5109361;28;20739;-71
2021/12/05 00:28:24;;;;;;;8.27;3.00;;;3.50;99.90;;;;;;5112196;28;20202;-71
2021/12/05 00:31:16;;;;;;;8.60;2.77;;;3.60;99.90;;;;;;5112763;28;20227;-72
2021/12/05 00:34:02;;;;;;;14.40;2.83;;;3.60;99.90;;;;;;5112374;27;20195;-71
2021/12/05 00:39:55;;;;;;;8.87;2.70;;;3.60;99.90;;;;;;5108630;27;20210;-71
2021/12/05 00:56:48;;;;;;;13.10;2.93;;;3.70;99.90;;;;;;5108239;27;20256;-72
2021/12/05 00:59:33;;;;;;;7.80;2.60;;;3.80;99.90;;;;;;5111369;27;20719;-71
2021/12/05 01:10:29;;;;;;;10.40;2.60;;;4.10;99.90;;;;;;5119871;27;20639;-71
2021/12/05 01:15:52;;;;;;;5.73;2.70;;;4.20;99.90;;;;;;5116199;27;20210;-71
2021/12/05 01:18:21;;;;;;;7.23;2.60;;;4.20;99.90;;;;;;5117133;27;20193;-73
2021/12/05 01:20:56;;;;;;;10.70;3.20;;;4.20;99.90;;;;;;5116704;27;20202;-71
2021/12/05 01:23:34;;;;;;;9.23;2.63;;;4.20;99.90;;;;;;5111122;27;20737;-72
2021/12/05 01:26:06;;;;;;;8.17;3.00;;;4.20;99.90;;;;;;5108343;28;20281;-71
2021/12/05 01:28:43;;;;;;;6.67;2.70;;;4.20;99.90;;;;;;5113497;27;20195;-71
2021/12/05 01:31:22;;;;;;;9.93;2.97;;;4.10;99.90;;;;;;5110367;27;20193;-72
2021/12/05 01:33:58;;;;;;;8.23;3.13;;;4.10;99.90;;;;;;5118341;27;20577;-69
2021/12/05 01:36:34;;;;;;;10.97;3.00;;;4.10;99.90;;;;;;5109304;28;20199;-71
2021/12/05 01:39:22;;;;;;;11.07;2.90;;;4.10;99.90;;;;;;5124048;27;20233;-70
2021/12/05 01:50:50;;;;;;;11.70;2.87;;;4.10;99.90;;;;;;5105369;27;20768;-70
2021/12/05 01:53:35;;;;;;;4.37;2.83;;;4.10;99.90;;;;;;5110750;27;20195;-70
2021/12/05 02:16:01;;;;;;;7.17;3.00;;;4.00;99.90;;;;;;5111962;27;20210;-72
2021/12/05 02:35:31;;;;;;;8.47;2.70;;;4.00;99.90;;;;;;5108297;27;20220;-70
2021/12/05 02:41:12;;;;;;;4.50;2.60;;;4.10;99.90;;;;;;5109685;27;20218;-74
2021/12/05 02:43:46;;;;;;;6.87;2.30;;;4.10;99.90;;;;;;5115592;27;20627;-73
2021/12/05 02:46:21;;;;;;;4.20;2.43;;;4.10;99.90;;;;;;5122114;27;20232;-72
2021/12/05 02:48:50;;;;;;;6.60;2.20;;;4.10;99.90;;;;;;5113030;27;20684;-72
2021/12/05 02:51:21;;;;;;;5.80;2.90;;;4.10;99.90;;;;;;5119844;27;20201;-72
2021/12/05 02:54:02;;;;;;;5.70;2.70;;;4.00;99.90;;;;;;5113795;27;20531;-72
2021/12/05 02:56:34;;;;;;;3.77;3.10;;;4.00;99.90;;;;;;5120525;27;20222;-73
2021/12/05 02:59:07;;;;;;;4.37;3.10;;;4.00;99.90;;;;;;5116124;27;20205;-72
2021/12/05 03:01:41;;;;;;;7.03;3.13;;;4.00;99.90;;;;;;5117483;27;20198;-72
2021/12/05 03:04:09;;;;;;;9.27;3.93;;;4.00;99.90;;;;;;5111379;27;20271;-72
2021/12/05 03:06:49;;;;;;;5.30;3.90;;;4.00;99.90;;;;;;5115304;27;20245;-72
2021/12/05 03:09:21;;;;;;;5.70;3.50;;;4.00;99.90;;;;;;5114624;27;20197;-72
2021/12/05 03:11:51;;;;;;;6.13;3.50;;;4.00;99.90;;;;;;5112167;28;20282;-72
2021/12/05 03:14:21;;;;;;;6.60;3.50;;;4.00;99.90;;;;;;5111355;27;20201;-71
2021/12/05 03:16:51;;;;;;;4.43;3.33;;;4.00;99.90;;;;;;5117317;28;20210;-71
2021/12/05 03:19:20;;;;;;;3.80;3.50;;;4.00;99.90;;;;;;5115347;27;20198;-71
2021/12/05 03:21:51;;;;;;;8.80;3.97;;;4.00;99.90;;;;;;5111195;28;20230;-72
2021/12/05 03:24:24;;;;;;;6.43;3.67;;;4.00;99.90;;;;;;5112588;27;20772;-72
2021/12/05 03:26:54;;;;;;;8.97;3.90;;;4.00;99.90;;;;;;5116878;28;20194;-71
2021/12/05 03:29:24;;;;;;;3.77;3.47;;;4.00;99.90;;;;;;5108204;28;20790;-71
2021/12/05 03:31:57;;;;;;;5.47;3.60;;;4.00;99.90;;;;;;5115758;28;20184;-70
2021/12/05 03:34:27;;;;;;;10.20;4.10;;;3.90;99.90;;;;;;5120597;28;20182;-72
2021/12/05 03:36:57;;;;;;;5.47;3.60;;;3.90;99.90;;;;;;5116358;27;20198;-72
2021/12/05 03:39:29;;;;;;;7.30;3.70;;;3.90;99.90;;;;;;5093028;28;20194;-71
2021/12/05 03:41:58;;;;;;;6.20;4.20;;;3.90;99.90;;;;;;5107749;28;20215;-71
2021/12/05 03:44:30;;;;;;;6.77;3.93;;;4.00;99.90;;;;;;5117093;28;20530;-72
2021/12/05 03:47:00;;;;;;;8.20;3.80;;;4.00;99.90;;;;;;5119297;27;20228;-72
2021/12/05 03:49:29;;;;;;;6.97;4.20;;;4.00;99.90;;;;;;5109128;27;20661;-72
2021/12/05 03:52:02;;;;;;;8.30;4.20;;;4.00;99.90;;;;;;5112847;28;20250;-72
2021/12/05 03:54:32;;;;;;;7.47;4.40;;;4.00;99.90;;;;;;5119657;28;20689;-72
2021/12/05 03:57:02;;;;;;;9.70;4.63;;;4.00;99.90;;;;;;5118005;27;20194;-71
2021/12/05 03:59:33;;;;;;;5.77;4.70;;;4.00;99.90;;;;;;5118135;28;20263;-72
2021/12/05 04:02:04;;;;;;;4.83;4.30;;;4.00;99.90;;;;;;5106678;28;20280;-72
2021/12/05 04:04:33;;;;;;;8.93;4.83;;;4.00;99.90;;;;;;5116083;28;20234;-72
2021/12/05 04:07:03;;;;;;;11.63;5.10;;;4.00;99.90;;;;;;5114514;27;20262;-72
2021/12/05 04:09:33;;;;;;;8.67;4.90;;;4.00;99.90;;;;;;5125064;27;20282;-72
2021/12/05 04:12:03;;;;;;;7.80;5.43;;;4.00;99.90;;;;;;5122861;27;20225;-72
2021/12/05 04:14:37;;;;;;;5.50;4.93;;;4.00;99.90;;;;;;5115075;27;20399;-72
2021/12/05 04:17:09;;;;;;;8.37;5.23;;;4.00;99.90;;;;;;5114637;27;20198;-71
2021/12/05 04:19:38;;;;;;;10.47;5.77;;;4.00;99.90;;;;;;5112784;27;21751;-72
2021/12/05 04:22:08;;;;;;;7.87;6.13;;;4.00;99.90;;;;;;5121221;27;20198;-72
2021/12/05 04:24:38;;;;;;;11.63;7.47;;;4.00;99.90;;;;;;5118383;27;20218;-72
2021/12/05 04:27:09;;;;;;;13.27;7.07;;;4.10;99.90;;;;;;5119468;27;20191;-72
2021/12/05 04:29:37;;;;;;;13.37;7.03;;;4.10;99.90;;;;;;5116235;27;20194;-72
2021/12/05 04:32:07;;;;;;;13.40;7.33;;;4.00;99.90;;;;;;5120987;27;20194;-72
2021/12/05 04:34:37;;;;;;;15.67;7.63;;;4.00;99.90;;;;;;5118355;27;20305;-71
2021/12/05 04:37:06;;;;;;;12.77;7.03;;;4.00;99.90;;;;;;5113511;27;20220;-72
2021/12/05 04:39:34;;;;;;;10.77;7.10;;;4.10;99.90;;;;;;5114905;27;20195;-72
2021/12/05 04:42:04;;;;;;;11.47;6.60;;;4.00;99.90;;;;;;5115883;27;20206;-72
2021/12/05 04:44:33;;;;;;;9.83;6.37;;;4.00;99.90;;;;;;5119517;27;20218;-72
2021/12/05 04:47:05;;;;;;;13.10;6.33;;;4.00;99.90;;;;;;5122423;27;20194;-72
2021/12/05 04:49:39;;;;;;;8.47;5.23;;;4.00;99.90;;;;;;5123509;27;20197;-72
2021/12/05 04:52:08;;;;;;;6.17;4.83;;;4.00;99.90;;;;;;5116576;27;20191;-71
2021/12/05 04:54:38;;;;;;;8.60;4.97;;;4.00;99.90;;;;;;5124657;27;20246;-72
2021/12/05 04:57:08;;;;;;;12.97;5.57;;;4.00;99.90;;;;;;5118290;27;20250;-72
2021/12/05 04:59:43;;;;;;;9.50;5.00;;;4.00;99.90;;;;;;5114404;27;20198;-72
2021/12/05 05:02:12;;;;;;;8.30;4.93;;;4.00;99.90;;;;;;5113630;27;20185;-71
2021/12/05 05:04:43;;;;;;;9.00;4.87;;;4.00;99.90;;;;;;5113443;27;20270;-72
2021/12/05 05:07:18;;;;;;;5.73;4.20;;;3.90;99.90;;;;;;5116164;27;20218;-72
2021/12/05 05:09:47;;;;;;;6.70;3.90;;;3.90;99.90;;;;;;5115838;27;20201;-72
2021/12/05 05:12:18;;;;;;;5.90;3.97;;;3.90;99.90;;;;;;5116904;27;20206;-72
2021/12/05 05:14:50;;;;;;;4.17;3.70;;;3.90;99.90;;;;;;5111151;27;20201;-72
2021/12/05 05:17:19;;;;;;;5.43;4.30;;;3.90;99.90;;;;;;5098348;28;20203;-72
2021/12/05 05:19:51;;;;;;;4.67;4.10;;;3.90;99.90;;;;;;5124272;27;20222;-72
2021/12/05 05:22:30;;;;;;;4.27;3.70;;;3.90;99.90;;;;;;5114733;27;20209;-72
2021/12/05 05:39:03;;;;;;;7.53;4.00;;;3.90;99.90;;;;;;5108263;27;20219;-72
2021/12/05 05:48:01;;;;;;;5.33;4.17;;;3.90;99.90;;;;;;5051715;28;20222;-71
2021/12/05 05:50:30;;;;;;;6.17;4.20;;;3.90;99.90;;;;;;5080957;28;20200;-71
2021/12/05 05:52:58;;;;;;;6.67;4.70;;;3.90;99.90;;;;;;5084211;28;20242;-71
2021/12/05 05:55:27;;;;;;;6.57;4.80;;;3.90;99.90;;;;;;5082738;28;20219;-71
2021/12/05 05:58:04;;;;;;;6.63;5.17;;;3.90;99.90;;;;;;5083370;28;20200;-71
2021/12/05 06:00:38;;;;;;;10.10;5.47;;;3.90;99.90;;;;;;5081567;28;20223;-71
2021/12/05 06:03:22;;;;;;;11.43;5.63;;;3.90;99.90;;;;;;5085039;28;20199;-71
2021/12/05 06:05:53;;;;;;;7.27;5.83;;;3.90;99.90;;;;;;5084359;28;20649;-69
2021/12/05 06:08:24;;;;;;;9.77;5.60;;;3.90;99.90;;;;;;5088246;28;20201;-70
2021/12/05 06:10:57;;;;;;;9.00;5.73;;;3.90;99.90;;;;;;5077831;28;20192;-70
2021/12/05 06:13:29;;;;;;;7.30;5.87;;;4.00;99.90;;;;;;5084726;28;20612;-70
2021/12/05 06:15:58;;;;;;;11.37;6.50;;;4.00;99.90;;;;;;5082412;28;20229;-71
2021/12/05 06:18:27;;;;;;;9.47;6.27;;;4.00;99.90;;;;;;5084575;28;20283;-71
2021/12/05 06:20:57;;;;;;;6.30;5.47;;;4.00;99.90;;;;;;5083015;28;20219;-70
2021/12/05 06:23:26;;;;;;;7.30;5.37;;;4.00;99.90;;;;;;5084424;28;20203;-70
2021/12/05 06:25:55;;;;;;;8.57;5.57;;;4.00;99.90;;;;;;5082333;28;20191;-70
2021/12/05 06:28:29;;;;;;;6.30;5.17;;;4.00;99.90;;;;;;5079805;28;20941;-71
2021/12/05 06:31:09;;;;;;;7.40;5.50;;;4.00;99.90;;;;;;5086778;28;20189;-71
2021/12/05 06:39:23;;;;;;;5.93;4.43;;;4.00;99.90;;;;;;5082960;28;20253;-72
2021/12/05 06:42:06;;;;;;;5.93;4.83;;;4.00;99.90;;;;;;5078550;28;20263;-71
2021/12/05 06:47:25;;;;;;;4.20;3.73;;;3.90;99.90;;;;;;5103171;28;20249;-70
2021/12/05 06:49:54;;;;;;;4.10;3.80;;;4.00;99.90;;;;;;5084100;28;20207;-70
2021/12/05 06:52:41;;;;;;;4.10;3.67;;;3.90;99.90;;;;;;5075541;28;20250;-70
2021/12/05 06:55:11;;;;;;;4.20;3.90;;;3.90;99.90;;;;;;5070103;28;20223;-70
2021/12/05 06:57:40;;;;;;;4.60;4.07;;;3.90;99.90;;;;;;5072694;28;20195;-71
2021/12/05 07:00:16;;;;;;;4.73;4.37;;;3.90;99.90;;;;;;5082605;28;20759;-71
2021/12/05 07:02:49;;;;;;;5.03;4.40;;;3.90;99.90;;;;;;5065214;28;20262;-70
2021/12/05 07:08:01;;;;;;;9.50;5.53;;;3.80;99.90;;;;;;5047856;28;20204;-69
2021/12/05 07:10:32;;;;;;;6.53;5.40;;;3.80;99.90;;;;;;5069592;28;20196;-71
2021/12/05 07:13:45;;;;;;;8.20;5.90;;;3.80;99.90;;;;;;5067433;28;20184;-70
2021/12/05 07:16:24;;;;;;;11.90;7.53;;;3.80;99.90;;;;;;5073856;28;20413;-71
2021/12/05 07:19:13;;;;;;;17.70;8.07;;;3.80;99.90;;;;;;5068821;28;20287;-70
2021/12/05 07:21:48;;;;;;;13.70;8.37;;;3.90;99.90;;;;;;5068245;28;20220;-70
2021/12/05 07:24:30;;;;;;;18.37;8.63;;;3.80;99.90;;;;;;5069201;28;21407;-70
2021/12/05 07:40:51;;;;;;;15.27;9.40;;;3.80;99.90;;;;;;5063963;28;20288;-70
2021/12/05 07:43:19;;;;;;;12.30;8.73;;;3.80;99.90;;;;;;5060294;28;20772;-70
2021/12/05 07:45:54;;;;;;;8.43;6.00;;;3.70;99.90;;;;;;5069070;28;20253;-70
2021/12/05 07:48:27;;;;;;;5.97;4.80;;;3.70;99.90;;;;;;5062938;28;20187;-70
2021/12/05 07:51:08;;;;;;;8.23;4.40;;;3.70;99.90;;;;;;5082619;28;20199;-70
2021/12/05 07:53:47;;;;;;;9.07;5.83;;;3.60;99.90;;;;;;5070204;28;20196;-70
2021/12/05 07:56:20;;;;;;;6.63;3.87;;;3.60;99.90;;;;;;5066422;28;20647;-70
2021/12/05 07:58:58;;;;;;;3.33;2.97;;;3.50;99.90;;;;;;5068888;28;20257;-70
2021/12/05 08:15:23;;;;;;;4.67;3.10;;;3.50;99.90;;;;;;5066970;28;20254;-71
2021/12/05 08:17:52;;;;;;;3.17;2.97;;;3.50;99.90;;;;;;5065489;28;20253;-70
2021/12/05 08:20:25;;;;;;;3.03;2.90;;;3.40;99.90;;;;;;5074477;28;20628;-70
2021/12/05 08:22:55;;;;;;;3.23;2.97;;;3.50;99.90;;;;;;5065093;28;20542;-70
2021/12/05 08:25:29;;;;;;;14.27;10.30;;;3.40;99.90;;;;;;5063078;28;20848;-70
2021/12/05 08:28:06;;;;;;;96.30;48.33;;;3.40;99.90;;;;;;5068192;28;20254;-70
2021/12/05 08:30:36;;;;;;;7.37;6.57;;;3.40;99.90;;;;;;5066217;28;21562;-70
2021/12/05 08:33:24;;;;;;;3.93;3.63;;;3.50;99.90;;;;;;5068497;28;20271;-69
2021/12/05 08:36:34;;;;;;;3.37;3.07;;;3.50;99.90;;;;;;5066509;28;20192;-70
2021/12/05 08:39:35;;;;;;;15.83;11.73;;;3.50;99.90;;;;;;5065886;28;20662;-70
2021/12/05 08:42:36;;;;;;;17.97;10.73;;;3.50;99.90;;;;;;5064183;28;20740;-70
2021/12/05 09:27:27;;;;;;;264.93;103.97;;;4.00;99.90;;;;;;5057721;28;20202;-70
2021/12/05 09:38:50;;;;;;;28.37;17.40;;;4.10;99.90;;;;;;5058864;28;20211;-70
2021/12/05 10:06:50;;;;;;;17.27;10.87;;;4.90;99.90;;;;;;5068346;28;20298;-70
2021/12/05 10:15:20;;;;;;;15.03;11.03;;;5.70;99.90;;;;;;5059887;28;20300;-70
2021/12/05 10:18:28;;;;;;;117.93;59.13;;;5.70;99.90;;;;;;5065531;28;20283;-70
2021/12/05 10:26:56;;;;;;;11.97;9.43;;;5.20;99.90;;;;;;5067719;28;20199;-70
2021/12/05 10:35:25;;;;;;;12.43;9.30;;;5.10;99.90;;;;;;5068367;28;20207;-69
2021/12/05 10:38:03;;;;;;;13.00;10.63;;;5.20;99.90;;;;;;5068633;28;20184;-70
2021/12/05 10:40:37;;;;;;;22.73;13.63;;;5.30;99.90;;;;;;5075095;28;20222;-70
2021/12/05 10:43:14;;;;;;;12.90;9.67;;;5.60;99.90;;;;;;5063414;28;20250;-69
2021/12/05 10:45:45;;;;;;;9.17;8.00;;;5.80;99.90;;;;;;5064170;28;20200;-70
2021/12/05 10:48:23;;;;;;;9.97;8.40;;;6.00;99.90;;;;;;5068968;28;20192;-70
2021/12/05 10:50:54;;;;;;;8.67;7.57;;;6.10;99.90;;;;;;5079245;28;20188;-70
2021/12/05 10:53:31;;;;;;;8.30;6.60;;;6.10;99.90;;;;;;5062198;28;20189;-70
2021/12/05 10:56:04;;;;;;;8.23;7.30;;;6.20;99.90;;;;;;5073233;28;20636;-71
2021/12/05 10:58:38;;;;;;;8.00;7.20;;;6.30;99.90;;;;;;5059055;28;20238;-70
2021/12/05 11:01:13;;;;;;;8.63;7.40;;;6.50;99.90;;;;;;5065350;28;20196;-70
2021/12/05 11:03:43;;;;;;;8.03;6.67;;;6.50;99.90;;;;;;5065784;28;20274;-69
2021/12/05 11:06:20;;;;;;;10.23;6.80;;;6.30;99.90;;;;;;5075544;28;20658;-71
2021/12/05 11:08:55;;;;;;;9.27;6.30;;;6.40;99.90;;;;;;5066584;28;20191;-70
2021/12/05 11:11:24;;;;;;;7.10;5.97;;;6.40;99.90;;;;;;5069542;28;20270;-70
2021/12/05 11:13:53;;;;;;;6.77;6.17;;;6.30;99.90;;;;;;5069411;28;20701;-70
2021/12/05 11:16:40;;;;;;;8.27;7.20;;;6.10;99.90;;;;;;5065381;28;20245;-70
2021/12/05 11:19:12;;;;;;;6.93;6.33;;;6.10;99.90;;;;;;5066799;28;20236;-70
2021/12/05 11:21:46;;;;;;;9.30;6.60;;;6.10;99.90;;;;;;5067449;28;20597;-70
2021/12/05 11:24:22;;;;;;;7.13;6.43;;;6.20;99.90;;;;;;5067257;28;20228;-70
2021/12/05 11:27:13;;;;;;;7.77;6.50;;;6.30;99.90;;;;;;5064945;28;20282;-70
2021/12/05 11:30:10;;;;;;;10.40;6.70;;;6.40;99.90;;;;;;5071894;28;20200;-70
2021/12/05 11:32:50;;;;;;;7.17;6.47;;;6.40;99.90;;;;;;5066945;28;20181;-70
2021/12/05 11:35:30;;;;;;;8.03;7.33;;;6.40;99.90;;;;;;5073002;28;20226;-71
2021/12/05 11:38:09;;;;;;;8.47;7.63;;;6.40;99.90;;;;;;5060833;28;20647;-71
2021/12/05 11:40:51;;;;;;;10.37;7.87;;;6.50;99.90;;;;;;5066453;28;20306;-71
2021/12/05 11:43:23;;;;;;;11.20;8.43;;;6.40;99.90;;;;;;5061027;28;20215;-71
2021/12/05 11:45:56;;;;;;;12.67;9.40;;;6.40;99.90;;;;;;5060922;28;20215;-71
2021/12/05 11:48:27;;;;;;;11.33;8.17;;;6.30;99.90;;;;;;5066499;28;20184;-71
2021/12/05 11:50:58;;;;;;;13.67;8.97;;;6.30;99.90;;;;;;5098564;27;20192;-70
2021/12/05 11:53:40;;;;;;;9.27;8.03;;;6.20;99.90;;;;;;5070947;28;20193;-71
2021/12/05 11:56:12;;;;;;;9.03;7.43;;;6.10;99.90;;;;;;5065074;28;20206;-71
2021/12/05 11:58:40;;;;;;;11.07;7.93;;;6.10;99.90;;;;;;5069542;28;20257;-71
2021/12/05 12:01:12;;;;;;;12.73;8.13;;;6.10;99.90;;;;;;5074224;28;20192;-70
2021/12/05 12:03:42;;;;;;;7.57;6.53;;;6.10;99.90;;;;;;5068845;28;20208;-71
2021/12/05 12:06:11;;;;;;;7.60;6.90;;;6.10;99.90;;;;;;5071834;28;20932;-71
2021/12/05 12:08:40;;;;;;;15.20;10.40;;;6.10;99.90;;;;;;5064873;28;20222;-70
2021/12/05 12:11:10;;;;;;;11.13;8.10;;;6.10;99.90;;;;;;5066569;28;20265;-70
2021/12/05 12:13:40;;;;;;;11.87;9.40;;;6.10;99.90;;;;;;5078037;28;20706;-70
2021/12/05 12:16:12;;;;;;;8.40;7.30;;;6.10;99.90;;;;;;5062734;28;20208;-71
2021/12/05 12:18:45;;;;;;;8.13;7.40;;;6.10;99.90;;;;;;5067342;28;20188;-70
2021/12/05 12:21:19;;;;;;;9.10;7.30;;;6.10;99.90;;;;;;5064848;28;20211;-71
2021/12/05 12:23:49;;;;;;;9.47;6.97;;;6.10;99.90;;;;;;5061601;28;20219;-71
2021/12/05 12:26:19;;;;;;;8.77;7.10;;;6.10;99.90;;;;;;5068670;28;20202;-71
2021/12/05 12:28:48;;;;;;;7.57;6.67;;;6.10;99.90;;;;;;5061018;28;20207;-71
2021/12/05 12:31:23;;;;;;;12.03;7.90;;;6.10;99.90;;;;;;5066633;28;20208;-71
2021/12/05 12:33:54;;;;;;;7.20;6.57;;;6.10;99.90;;;;;;5062795;28;20321;-70
2021/12/05 12:36:38;;;;;;;7.60;6.90;;;6.20;99.90;;;;;;5065633;28;20200;-71
2021/12/05 12:39:29;;;;;;;7.47;6.77;;;6.10;99.90;;;;;;5065729;28;20718;-71
2021/12/05 12:42:13;;;;;;;7.10;6.43;;;6.20;99.90;;;;;;5060929;28;20654;-70
2021/12/05 12:45:00;;;;;;;7.37;6.73;;;6.20;99.90;;;;;;5064771;28;20208;-71
2021/12/05 12:47:35;;;;;;;7.17;6.50;;;6.20;99.90;;;;;;5065731;28;20192;-70
2021/12/05 12:50:24;;;;;;;6.93;6.33;;;6.10;99.90;;;;;;5069699;28;20196;-71
2021/12/05 12:52:58;;;;;;;6.60;6.00;;;6.10;99.90;;;;;;5066627;28;20195;-71
2021/12/05 12:55:31;;;;;;;8.40;6.60;;;6.10;99.90;;;;;;5076228;28;20218;-71
2021/12/05 12:58:05;;;;;;;7.60;6.90;;;6.10;99.90;;;;;;5070497;28;20238;-71
2021/12/05 13:00:38;;;;;;;8.37;6.53;;;6.10;99.90;;;;;;5066912;28;20257;-70
2021/12/05 13:03:25;;;;;;;7.87;6.93;;;6.10;99.90;;;;;;5070205;28;20212;-70
2021/12/05 13:11:55;;;;;;;7.67;6.97;;;6.00;99.90;;;;;;5068483;28;20291;-71
2021/12/05 13:14:26;;;;;;;10.73;7.03;;;6.00;99.90;;;;;;5062191;28;20281;-70
2021/12/05 13:16:54;;;;;;;8.13;7.33;;;6.00;99.90;;;;;;5092310;28;20207;-70
2021/12/05 13:19:27;;;;;;;8.00;7.20;;;6.00;99.90;;;;;;5054168;28;20298;-70
2021/12/05 13:22:05;;;;;;;7.40;6.60;;;6.00;99.90;;;;;;5062586;28;20203;-70
2021/12/05 13:24:42;;;;;;;7.20;6.50;;;6.10;99.90;;;;;;5060340;28;20218;-71
2021/12/05 13:27:26;;;;;;;14.07;10.17;;;6.20;99.90;;;;;;5074133;28;20196;-71
2021/12/05 13:29:57;;;;;;;7.50;6.70;;;6.40;99.90;;;;;;5059971;28;20662;-70
2021/12/05 13:32:29;;;;;;;6.90;6.20;;;6.40;99.90;;;;;;5060250;28;20227;-70
2021/12/05 13:34:59;;;;;;;7.00;6.30;;;6.50;99.90;;;;;;5057245;28;20204;-70
2021/12/05 13:37:34;;;;;;;7.33;6.63;;;6.50;99.90;;;;;;5060642;28;20203;-72
2021/12/05 13:40:13;;;;;;;7.37;6.67;;;6.40;99.90;;;;;;5093249;28;20278;-70
2021/12/05 13:42:46;;;;;;;7.03;6.37;;;6.40;99.90;;;;;;5055542;28;20277;-70
2021/12/05 13:45:35;;;;;;;7.17;6.47;;;6.40;99.90;;;;;;5057765;28;20216;-70
2021/12/05 13:48:25;;;;;;;7.07;6.53;;;6.40;99.90;;;;;;5056703;28;20201;-70
2021/12/05 13:51:00;;;;;;;8.63;6.30;;;6.40;99.90;;;;;;5059707;28;20207;-71
2021/12/05 13:53:46;;;;;;;7.93;6.73;;;6.30;99.90;;;;;;5060715;28;20219;-72
2021/12/05 13:56:25;;;;;;;7.20;6.50;;;6.40;99.90;;;;;;5058875;28;20266;-70
2021/12/05 13:58:59;;;;;;;9.63;6.30;;;6.40;99.90;;;;;;5057380;28;20203;-71
2021/12/05 14:01:33;;;;;;;7.63;6.67;;;6.30;99.90;;;;;;5056957;28;20279;-73
2021/12/05 14:04:24;;;;;;;7.50;6.70;;;6.30;99.90;;;;;;5059386;28;20221;-72
2021/12/05 14:06:57;;;;;;;6.43;5.80;;;6.30;99.90;;;;;;5065099;28;20200;-72
2021/12/05 14:09:29;;;;;;;7.40;6.80;;;6.30;99.90;;;;;;5063213;28;20200;-72
2021/12/05 14:12:02;;;;;;;10.60;9.50;;;6.30;99.90;;;;;;5066048;28;20184;-72
2021/12/05 14:14:40;;;;;;;7.00;6.30;;;6.40;99.90;;;;;;5060345;28;20725;-73
2021/12/05 14:17:13;;;;;;;6.37;5.87;;;6.30;99.90;;;;;;5095450;28;20203;-73
2021/12/05 14:19:43;;;;;;;11.17;9.97;;;6.30;99.90;;;;;;5066357;28;20807;-72
2021/12/05 14:22:14;;;;;;;7.33;6.60;;;6.40;99.90;;;;;;5063268;28;20193;-73
2021/12/05 14:24:45;;;;;;;7.03;6.43;;;6.40;99.90;;;;;;5062398;28;20200;-72
2021/12/05 14:27:17;;;;;;;6.40;5.90;;;6.50;99.90;;;;;;5069400;28;20212;-73
2021/12/05 14:29:48;;;;;;;6.97;6.00;;;6.50;99.90;;;;;;5067073;28;20291;-73
2021/12/05 14:32:23;;;;;;;7.33;5.97;;;6.50;99.90;;;;;;5055728;28;20192;-73
2021/12/05 14:34:54;;;;;;;6.63;6.00;;;6.60;99.90;;;;;;5063006;28;20200;-72
2021/12/05 14:37:25;;;;;;;6.63;6.00;;;6.60;99.90;;;;;;5082384;28;20196;-72
2021/12/05 14:39:58;;;;;;;6.90;6.30;;;6.70;99.90;;;;;;5065119;28;21533;-72
2021/12/05 14:42:28;;;;;;;6.97;6.37;;;6.70;99.90;;;;;;5062370;28;20191;-72
2021/12/05 14:45:01;;;;;;;8.07;7.27;;;6.80;99.90;;;;;;5060315;28;20311;-72
2021/12/05 14:47:36;;;;;;;6.93;6.23;;;6.80;99.90;;;;;;5062883;28;20232;-72
2021/12/05 14:50:07;;;;;;;6.90;6.20;;;6.80;99.90;;;;;;5091128;28;20199;-72
2021/12/05 14:52:38;;;;;;;6.57;5.97;;;6.70;99.90;;;;;;5094637;28;20291;-72
2021/12/05 14:55:09;;;;;;;6.87;6.17;;;6.60;99.90;;;;;;5096022;28;20228;-72
2021/12/05 14:57:43;;;;;;;7.40;6.70;;;6.60;99.90;;;;;;5065463;28;20212;-72
2021/12/05 15:00:18;;;;;;;10.70;7.90;;;6.40;99.90;;;;;;5070412;28;20200;-72
2021/12/05 15:02:51;;;;;;;6.70;6.10;;;6.40;99.90;;;;;;5063915;28;20564;-72
2021/12/05 15:05:21;;;;;;;6.67;6.07;;;6.30;99.90;;;;;;5065317;28;20230;-72
2021/12/05 15:07:49;;;;;;;7.03;6.33;;;6.20;99.90;;;;;;5061113;28;20552;-72
2021/12/05 15:10:21;;;;;;;6.73;6.13;;;6.10;99.90;;;;;;5063941;28;20265;-72
2021/12/05 15:12:53;;;;;;;6.83;6.23;;;6.00;99.90;;;;;;5068874;28;20679;-72
2021/12/05 15:15:24;;;;;;;8.00;6.47;;;6.00;99.90;;;;;;5060795;28;20200;-72
2021/12/05 15:17:57;;;;;;;9.00;7.30;;;5.80;99.90;;;;;;5062984;28;20452;-72
2021/12/05 15:20:29;;;;;;;9.03;6.87;;;5.80;99.90;;;;;;5062499;28;20283;-72
2021/12/05 15:23:06;;;;;;;7.90;7.20;;;5.70;99.90;;;;;;5063171;28;20214;-72
2021/12/05 15:25:37;;;;;;;8.43;7.17;;;5.60;99.90;;;;;;5063407;28;20215;-72
2021/12/05 15:28:09;;;;;;;8.60;7.70;;;5.50;99.90;;;;;;5066341;28;20192;-71
2021/12/05 15:30:42;;;;;;;9.83;8.10;;;5.40;99.90;;;;;;5066193;28;20200;-71
2021/12/05 15:33:15;;;;;;;8.43;7.57;;;5.30;99.90;;;;;;5061143;28;20211;-71
2021/12/05 15:35:44;;;;;;;10.97;7.73;;;5.20;99.90;;;;;;5064940;28;20224;-72
2021/12/05 15:38:18;;;;;;;10.87;8.03;;;5.10;99.90;;;;;;5059881;28;20200;-71
2021/12/05 15:40:53;;;;;;;10.77;8.73;;;5.10;99.90;;;;;;5059712;28;20231;-72
2021/12/05 15:43:23;;;;;;;12.10;9.57;;;5.10;99.90;;;;;;5059882;28;20561;-72
2021/12/05 15:45:53;;;;;;;12.50;10.10;;;5.00;99.90;;;;;;5065846;28;20222;-72
2021/12/05 15:48:26;;;;;;;14.40;10.60;;;5.00;99.90;;;;;;5064082;28;20235;-72
2021/12/05 15:50:56;;;;;;;10.73;9.53;;;5.00;99.90;;;;;;5061371;28;20192;-71
2021/12/05 15:53:26;;;;;;;13.07;9.90;;;5.00;99.90;;;;;;5056864;28;20751;-71
2021/12/05 15:55:59;;;;;;;14.70;10.97;;;4.90;99.90;;;;;;5058796;28;20275;-72
2021/12/05 15:58:31;;;;;;;16.70;11.27;;;4.90;99.90;;;;;;5061250;28;20200;-72
2021/12/05 16:01:04;;;;;;;18.43;11.30;;;4.80;99.90;;;;;;5062551;28;20603;-72
2021/12/05 16:03:42;;;;;;;16.93;11.83;;;4.70;99.90;;;;;;5074198;28;20854;-72
2021/12/05 16:06:14;;;;;;;16.23;11.27;;;4.70;99.90;;;;;;5065002;28;21068;-72
2021/12/05 16:08:44;;;;;;;19.57;11.87;;;4.60;99.90;;;;;;5060534;28;20709;-72
2021/12/05 16:11:15;;;;;;;16.47;11.87;;;4.60;99.90;;;;;;5057249;28;20249;-72
2021/12/05 16:13:46;;;;;;;17.70;12.17;;;4.60;99.90;;;;;;5075586;28;20192;-72
2021/12/05 16:16:17;;;;;;;19.53;12.57;;;4.50;99.90;;;;;;5061698;28;20196;-71
2021/12/05 16:18:50;;;;;;;16.03;11.13;;;4.50;99.90;;;;;;5062259;28;20261;-72
2021/12/05 16:21:20;;;;;;;18.10;12.40;;;4.60;99.90;;;;;;5063742;28;20208;-72
2021/12/05 16:23:50;;;;;;;19.37;12.87;;;4.60;99.90;;;;;;5063546;28;20301;-71
2021/12/05 16:26:22;;;;;;;15.70;12.90;;;4.60;99.90;;;;;;5055406;28;20212;-71
2021/12/05 16:28:55;;;;;;;16.60;12.57;;;4.60;99.90;;;;;;5060021;28;20224;-71
2021/12/05 16:31:25;;;;;;;19.00;11.97;;;4.60;99.90;;;;;;5054744;28;20200;-72
2021/12/05 16:33:59;;;;;;;19.40;12.80;;;4.60;99.90;;;;;;5065300;28;20784;-71
2021/12/05 16:36:30;;;;;;;24.67;15.53;;;4.60;99.90;;;;;;5056986;28;20188;-71
2021/12/05 16:39:08;;;;;;;32.60;19.00;;;4.60;99.90;;;;;;5068287;28;20292;-71
2021/12/05 16:41:37;;;;;;;26.37;17.40;;;4.60;99.90;;;;;;5059821;28;20726;-71
2021/12/05 16:44:12;;;;;;;25.90;17.60;;;4.60;99.90;;;;;;5058386;28;20219;-71
2021/12/05 16:46:44;;;;;;;31.83;21.33;;;4.70;99.90;;;;;;5057996;28;20281;-71
2021/12/05 16:49:18;;;;;;;28.97;19.97;;;4.70;99.90;;;;;;5062370;28;20200;-71
2021/12/05 16:51:50;;;;;;;27.00;18.40;;;4.70;99.90;;;;;;5056010;28;20197;-71
2021/12/05 16:54:30;;;;;;;27.77;19.60;;;4.70;99.90;;;;;;5067558;28;20257;-72
2021/12/05 16:57:02;;;;;;;29.23;18.20;;;4.70;99.90;;;;;;5060664;28;20275;-71
2021/12/05 16:59:32;;;;;;;26.17;18.23;;;4.70;99.90;;;;;;5063392;28;20204;-72
2021/12/05 17:02:14;;;;;;;25.80;16.30;;;4.70;99.90;;;;;;5061279;28;20224;-70
2021/12/05 17:04:56;;;;;;;21.43;14.60;;;4.70;99.90;;;;;;5060632;28;20200;-70
2021/12/05 17:07:44;;;;;;;22.70;14.80;;;4.70;99.90;;;;;;5061243;28;20221;-71
2021/12/05 17:10:32;;;;;;;25.10;15.93;;;4.70;99.90;;;;;;5057579;28;20212;-70
2021/12/05 17:13:10;;;;;;;29.07;18.23;;;4.70;99.90;;;;;;5059671;28;20266;-70
2021/12/05 17:15:45;;;;;;;25.97;17.00;;;4.60;99.90;;;;;;5061613;28;20200;-70
2021/12/05 17:18:19;;;;;;;25.70;16.97;;;4.60;99.90;;;;;;5059745;28;20204;-70
2021/12/05 17:20:53;;;;;;;24.67;15.77;;;4.60;99.90;;;;;;5070439;28;20253;-71
2021/12/05 17:23:26;;;;;;;21.40;14.60;;;4.50;99.90;;;;;;5071238;28;20655;-72
2021/12/05 17:26:09;;;;;;;21.90;15.93;;;4.50;99.90;;;;;;5062482;28;20230;-70
2021/12/05 17:28:40;;;;;;;22.57;15.60;;;4.50;99.90;;;;;;5060445;28;20204;-70
2021/12/05 17:31:12;;;;;;;24.90;15.83;;;4.50;99.90;;;;;;5059406;28;20265;-70
2021/12/05 17:33:49;;;;;;;37.77;21.87;;;4.50;99.90;;;;;;5061150;28;20710;-70
2021/12/05 17:36:23;;;;;;;28.50;18.60;;;4.50;99.90;;;;;;5059937;28;20199;-70
2021/12/05 17:38:54;;;;;;;27.23;18.37;;;4.50;99.90;;;;;;5061542;28;20200;-69
2021/12/05 17:41:26;;;;;;;30.57;18.47;;;4.50;99.90;;;;;;5058871;28;20323;-70